sensor_id;sensor_type;location;lat;lon;timestamp;P1;durP1;ratioP1;P2;durP2;ratioP2
21297;SDS011;10808;48.010;11.326;2023-01-29T00:01:51;31.63;;;18.52;;
21297;SDS011;10808;48.010;11.326;2023-01-29T00:04:17;39.43;;;21.53;;
21297;SDS011;10808;48.010;11.326;2023-01-29T00:06:43;36.28;;;19.02;;
21297;SDS011;10808;48.010;11.326;2023-01-29T00:09:09;31.33;;;18.40;;
21297;SDS011;10808;48.010;11.326;2023-01-29T00:11:37;40.97;;;21.00;;
21297;SDS011;10808;48.010;11.326;2023-01-29T00:14:03;49.80;;;23.40;;
21297;SDS011;10808;48.010;11.326;2023-01-29T00:16:30;40.35;;;20.98;;
21297;SDS011;10808;48.010;11.326;2023-01-29T00:18:56;32.03;;;18.08;;
21297;SDS011;10808;48.010;11.326;2023-01-29T00:21:22;36.47;;;20.27;;
21297;SDS011;10808;48.010;11.326;2023-01-29T00:23:48;34.65;;;19.90;;
21297;SDS011;10808;48.010;11.326;2023-01-29T00:26:15;32.00;;;18.80;;
21297;SDS011;10808;48.010;11.326;2023-01-29T00:28:42;30.10;;;18.07;;
21297;SDS011;10808;48.010;11.326;2023-01-29T00:31:29;31.50;;;18.23;;
21297;SDS011;10808;48.010;11.326;2023-01-29T00:33:54;33.35;;;19.08;;
21297;SDS011;10808;48.010;11.326;2023-01-29T00:36:21;32.90;;;18.95;;
21297;SDS011;10808;48.010;11.326;2023-01-29T00:38:52;34.27;;;19.07;;
21297;SDS011;10808;48.010;11.326;2023-01-29T00:41:25;32.72;;;18.85;;
21297;SDS011;10808;48.010;11.326;2023-01-29T00:44:11;35.53;;;19.43;;
21297;SDS011;10808;48.010;11.326;2023-01-29T00:46:56;34.50;;;18.70;;
21297;SDS011;10808;48.010;11.326;2023-01-29T00:49:22;35.03;;;19.98;;
21297;SDS011;10808;48.010;11.326;2023-01-29T00:51:48;34.85;;;19.83;;
21297;SDS011;10808;48.010;11.326;2023-01-29T00:54:34;36.17;;;20.00;;
21297;SDS011;10808;48.010;11.326;2023-01-29T00:57:01;33.80;;;19.55;;
21297;SDS011;10808;48.010;11.326;2023-01-29T00:59:27;38.20;;;20.02;;
21297;SDS011;10808;48.010;11.326;2023-01-29T01:01:53;36.03;;;19.63;;
21297;SDS011;10808;48.010;11.326;2023-01-29T01:04:38;34.47;;;19.13;;
21297;SDS011;10808;48.010;11.326;2023-01-29T01:07:04;33.75;;;18.98;;
21297;SDS011;10808;48.010;11.326;2023-01-29T01:09:30;35.28;;;19.10;;
21297;SDS011;10808;48.010;11.326;2023-01-29T01:12:17;34.77;;;18.47;;
21297;SDS011;10808;48.010;11.326;2023-01-29T01:14:43;34.13;;;18.90;;
21297;SDS011;10808;48.010;11.326;2023-01-29T01:17:09;34.40;;;19.67;;
21297;SDS011;10808;48.010;11.326;2023-01-29T01:19:35;33.23;;;19.00;;
21297;SDS011;10808;48.010;11.326;2023-01-29T01:22:01;36.63;;;18.60;;
21297;SDS011;10808;48.010;11.326;2023-01-29T01:24:29;34.13;;;18.08;;
21297;SDS011;10808;48.010;11.326;2023-01-29T01:26:56;31.52;;;17.77;;
21297;SDS011;10808;48.010;11.326;2023-01-29T01:29:22;32.17;;;17.35;;
21297;SDS011;10808;48.010;11.326;2023-01-29T01:31:49;31.97;;;17.73;;
21297;SDS011;10808;48.010;11.326;2023-01-29T01:34:17;32.67;;;17.95;;
21297;SDS011;10808;48.010;11.326;2023-01-29T01:36:44;30.70;;;17.48;;
21297;SDS011;10808;48.010;11.326;2023-01-29T01:39:10;30.50;;;17.47;;
21297;SDS011;10808;48.010;11.326;2023-01-29T01:41:36;30.33;;;17.65;;
21297;SDS011;10808;48.010;11.326;2023-01-29T01:44:02;30.17;;;17.35;;
21297;SDS011;10808;48.010;11.326;2023-01-29T01:46:30;32.35;;;18.38;;
21297;SDS011;10808;48.010;11.326;2023-01-29T01:49:02;31.30;;;17.58;;
21297;SDS011;10808;48.010;11.326;2023-01-29T01:51:44;32.53;;;17.83;;
21297;SDS011;10808;48.010;11.326;2023-01-29T01:54:14;32.30;;;17.75;;
21297;SDS011;10808;48.010;11.326;2023-01-29T01:56:47;31.80;;;17.63;;
21297;SDS011;10808;48.010;11.326;2023-01-29T01:59:18;28.75;;;17.10;;
21297;SDS011;10808;48.010;11.326;2023-01-29T02:01:48;31.42;;;17.20;;
21297;SDS011;10808;48.010;11.326;2023-01-29T02:04:23;31.70;;;17.10;;
21297;SDS011;10808;48.010;11.326;2023-01-29T02:07:10;27.90;;;15.83;;
21297;SDS011;10808;48.010;11.326;2023-01-29T02:12:24;29.73;;;17.15;;
21297;SDS011;10808;48.010;11.326;2023-01-29T02:14:50;24.65;;;15.68;;
21297;SDS011;10808;48.010;11.326;2023-01-29T02:17:17;27.77;;;16.30;;
21297;SDS011;10808;48.010;11.326;2023-01-29T02:22:23;28.10;;;17.00;;
21297;SDS011;10808;48.010;11.326;2023-01-29T02:30:16;31.48;;;17.25;;
21297;SDS011;10808;48.010;11.326;2023-01-29T02:41:28;26.13;;;15.38;;
21297;SDS011;10808;48.010;11.326;2023-01-29T02:44:04;24.80;;;14.90;;
21297;SDS011;10808;48.010;11.326;2023-01-29T02:46:56;25.10;;;15.18;;
21297;SDS011;10808;48.010;11.326;2023-01-29T02:50:12;26.83;;;16.13;;
21297;SDS011;10808;48.010;11.326;2023-01-29T02:52:26;23.77;;;14.88;;
21297;SDS011;10808;48.010;11.326;2023-01-29T02:57:41;25.58;;;15.45;;
21297;SDS011;10808;48.010;11.326;2023-01-29T03:02:52;21.85;;;13.48;;
21297;SDS011;10808;48.010;11.326;2023-01-29T03:05:22;21.33;;;13.40;;
21297;SDS011;10808;48.010;11.326;2023-01-29T03:07:59;21.02;;;13.45;;
21297;SDS011;10808;48.010;11.326;2023-01-29T03:10:34;21.60;;;13.02;;
21297;SDS011;10808;48.010;11.326;2023-01-29T03:13:12;23.48;;;13.60;;
21297;SDS011;10808;48.010;11.326;2023-01-29T03:15:48;20.40;;;12.37;;
21297;SDS011;10808;48.010;11.326;2023-01-29T03:18:23;22.50;;;13.73;;
21297;SDS011;10808;48.010;11.326;2023-01-29T03:20:53;22.02;;;13.52;;
21297;SDS011;10808;48.010;11.326;2023-01-29T03:23:24;21.40;;;13.13;;
21297;SDS011;10808;48.010;11.326;2023-01-29T03:26:13;19.67;;;13.45;;
21297;SDS011;10808;48.010;11.326;2023-01-29T03:29:02;21.83;;;13.48;;
21297;SDS011;10808;48.010;11.326;2023-01-29T03:31:48;21.63;;;13.48;;
21297;SDS011;10808;48.010;11.326;2023-01-29T03:34:28;20.80;;;13.65;;
21297;SDS011;10808;48.010;11.326;2023-01-29T03:37:02;19.65;;;12.98;;
21297;SDS011;10808;48.010;11.326;2023-01-29T03:39:33;20.47;;;13.50;;
21297;SDS011;10808;48.010;11.326;2023-01-29T03:42:15;20.53;;;13.43;;
21297;SDS011;10808;48.010;11.326;2023-01-29T03:44:52;23.13;;;13.30;;
21297;SDS011;10808;48.010;11.326;2023-01-29T03:53:09;23.20;;;14.10;;
21297;SDS011;10808;48.010;11.326;2023-01-29T03:55:58;22.67;;;14.52;;
21297;SDS011;10808;48.010;11.326;2023-01-29T03:58:42;23.42;;;14.82;;
21297;SDS011;10808;48.010;11.326;2023-01-29T04:01:26;21.73;;;13.73;;
21297;SDS011;10808;48.010;11.326;2023-01-29T04:04:11;22.55;;;13.68;;
21297;SDS011;10808;48.010;11.326;2023-01-29T04:06:43;20.40;;;13.57;;
21297;SDS011;10808;48.010;11.326;2023-01-29T04:09:18;19.60;;;13.68;;
21297;SDS011;10808;48.010;11.326;2023-01-29T04:11:49;21.67;;;13.73;;
21297;SDS011;10808;48.010;11.326;2023-01-29T04:14:20;20.33;;;13.37;;
21297;SDS011;10808;48.010;11.326;2023-01-29T04:16:47;21.67;;;13.55;;
21297;SDS011;10808;48.010;11.326;2023-01-29T04:19:20;19.35;;;12.88;;
21297;SDS011;10808;48.010;11.326;2023-01-29T04:21:47;19.48;;;12.70;;
21297;SDS011;10808;48.010;11.326;2023-01-29T04:24:20;19.58;;;12.93;;
21297;SDS011;10808;48.010;11.326;2023-01-29T04:26:54;22.00;;;13.50;;
21297;SDS011;10808;48.010;11.326;2023-01-29T04:29:56;19.02;;;13.13;;
21297;SDS011;10808;48.010;11.326;2023-01-29T04:35:26;21.08;;;13.38;;
21297;SDS011;10808;48.010;11.326;2023-01-29T04:40:43;19.20;;;12.13;;
21297;SDS011;10808;48.010;11.326;2023-01-29T04:48:42;17.83;;;11.13;;
21297;SDS011;10808;48.010;11.326;2023-01-29T04:51:23;19.05;;;12.07;;
21297;SDS011;10808;48.010;11.326;2023-01-29T04:53:58;17.40;;;11.60;;
21297;SDS011;10808;48.010;11.326;2023-01-29T04:59:11;19.25;;;11.85;;
21297;SDS011;10808;48.010;11.326;2023-01-29T05:01:41;18.42;;;12.07;;
21297;SDS011;10808;48.010;11.326;2023-01-29T05:04:09;20.35;;;12.20;;
21297;SDS011;10808;48.010;11.326;2023-01-29T05:06:38;19.80;;;12.48;;
21297;SDS011;10808;48.010;11.326;2023-01-29T05:09:06;20.48;;;12.15;;
21297;SDS011;10808;48.010;11.326;2023-01-29T05:11:33;20.60;;;12.75;;
21297;SDS011;10808;48.010;11.326;2023-01-29T05:14:01;20.00;;;12.18;;
21297;SDS011;10808;48.010;11.326;2023-01-29T05:16:31;19.15;;;12.18;;
21297;SDS011;10808;48.010;11.326;2023-01-29T05:19:09;20.55;;;12.40;;
21297;SDS011;10808;48.010;11.326;2023-01-29T05:21:37;18.60;;;12.15;;
21297;SDS011;10808;48.010;11.326;2023-01-29T05:24:11;19.73;;;12.50;;
21297;SDS011;10808;48.010;11.326;2023-01-29T05:26:42;19.03;;;12.27;;
21297;SDS011;10808;48.010;11.326;2023-01-29T05:29:29;20.88;;;13.23;;
21297;SDS011;10808;48.010;11.326;2023-01-29T05:31:55;20.15;;;12.40;;
21297;SDS011;10808;48.010;11.326;2023-01-29T05:34:21;20.33;;;12.10;;
21297;SDS011;10808;48.010;11.326;2023-01-29T05:36:47;18.58;;;12.32;;
21297;SDS011;10808;48.010;11.326;2023-01-29T05:39:13;16.13;;;10.33;;
21297;SDS011;10808;48.010;11.326;2023-01-29T05:41:39;15.32;;;9.82;;
21297;SDS011;10808;48.010;11.326;2023-01-29T05:44:05;15.77;;;9.93;;
21297;SDS011;10808;48.010;11.326;2023-01-29T05:46:31;17.15;;;10.63;;
21297;SDS011;10808;48.010;11.326;2023-01-29T05:48:57;17.27;;;11.13;;
21297;SDS011;10808;48.010;11.326;2023-01-29T05:51:26;19.58;;;12.02;;
21297;SDS011;10808;48.010;11.326;2023-01-29T05:53:52;19.98;;;12.10;;
21297;SDS011;10808;48.010;11.326;2023-01-29T05:56:18;19.55;;;11.88;;
21297;SDS011;10808;48.010;11.326;2023-01-29T05:58:44;18.50;;;11.90;;
21297;SDS011;10808;48.010;11.326;2023-01-29T06:01:11;19.00;;;11.73;;
21297;SDS011;10808;48.010;11.326;2023-01-29T06:03:38;18.35;;;11.27;;
21297;SDS011;10808;48.010;11.326;2023-01-29T06:06:04;19.52;;;11.68;;
21297;SDS011;10808;48.010;11.326;2023-01-29T06:08:30;17.73;;;11.38;;
21297;SDS011;10808;48.010;11.326;2023-01-29T06:10:56;16.10;;;10.23;;
21297;SDS011;10808;48.010;11.326;2023-01-29T06:13:22;17.98;;;10.88;;
21297;SDS011;10808;48.010;11.326;2023-01-29T06:15:48;17.15;;;11.25;;
21297;SDS011;10808;48.010;11.326;2023-01-29T06:18:14;17.27;;;10.95;;
21297;SDS011;10808;48.010;11.326;2023-01-29T06:20:40;19.00;;;11.55;;
21297;SDS011;10808;48.010;11.326;2023-01-29T06:23:06;19.63;;;11.55;;
21297;SDS011;10808;48.010;11.326;2023-01-29T06:25:32;17.55;;;10.85;;
21297;SDS011;10808;48.010;11.326;2023-01-29T06:27:59;18.35;;;11.60;;
21297;SDS011;10808;48.010;11.326;2023-01-29T06:30:25;20.33;;;12.23;;
21297;SDS011;10808;48.010;11.326;2023-01-29T06:32:55;21.30;;;12.55;;
21297;SDS011;10808;48.010;11.326;2023-01-29T06:35:23;19.08;;;12.25;;
21297;SDS011;10808;48.010;11.326;2023-01-29T06:37:50;17.05;;;11.35;;
21297;SDS011;10808;48.010;11.326;2023-01-29T06:40:16;17.63;;;11.50;;
21297;SDS011;10808;48.010;11.326;2023-01-29T06:42:42;17.83;;;11.47;;
21297;SDS011;10808;48.010;11.326;2023-01-29T06:45:08;17.90;;;11.25;;
21297;SDS011;10808;48.010;11.326;2023-01-29T06:47:35;19.35;;;11.90;;
21297;SDS011;10808;48.010;11.326;2023-01-29T06:50:01;18.60;;;12.05;;
21297;SDS011;10808;48.010;11.326;2023-01-29T06:52:27;18.13;;;11.73;;
21297;SDS011;10808;48.010;11.326;2023-01-29T06:54:54;18.92;;;11.90;;
21297;SDS011;10808;48.010;11.326;2023-01-29T06:57:21;17.75;;;11.60;;
21297;SDS011;10808;48.010;11.326;2023-01-29T06:59:47;18.15;;;11.38;;
21297;SDS011;10808;48.010;11.326;2023-01-29T07:02:13;18.60;;;12.20;;
21297;SDS011;10808;48.010;11.326;2023-01-29T07:04:40;17.60;;;11.40;;
21297;SDS011;10808;48.010;11.326;2023-01-29T07:07:07;17.30;;;10.63;;
21297;SDS011;10808;48.010;11.326;2023-01-29T07:09:41;16.80;;;10.75;;
21297;SDS011;10808;48.010;11.326;2023-01-29T07:12:08;17.80;;;11.50;;
21297;SDS011;10808;48.010;11.326;2023-01-29T07:14:34;17.15;;;11.20;;
21297;SDS011;10808;48.010;11.326;2023-01-29T07:17:00;12.25;;;8.63;;
21297;SDS011;10808;48.010;11.326;2023-01-29T07:19:26;12.13;;;7.60;;
21297;SDS011;10808;48.010;11.326;2023-01-29T07:21:52;10.85;;;7.22;;
21297;SDS011;10808;48.010;11.326;2023-01-29T07:24:18;11.07;;;7.50;;
21297;SDS011;10808;48.010;11.326;2023-01-29T07:26:45;11.63;;;7.50;;
21297;SDS011;10808;48.010;11.326;2023-01-29T07:29:11;12.15;;;8.35;;
21297;SDS011;10808;48.010;11.326;2023-01-29T07:31:37;12.60;;;8.32;;
21297;SDS011;10808;48.010;11.326;2023-01-29T07:34:03;12.53;;;7.87;;
21297;SDS011;10808;48.010;11.326;2023-01-29T07:36:29;13.15;;;8.27;;
21297;SDS011;10808;48.010;11.326;2023-01-29T07:38:55;13.65;;;8.63;;
21297;SDS011;10808;48.010;11.326;2023-01-29T07:41:21;13.63;;;8.68;;
21297;SDS011;10808;48.010;11.326;2023-01-29T07:43:47;11.48;;;7.70;;
21297;SDS011;10808;48.010;11.326;2023-01-29T07:46:13;12.45;;;8.18;;
21297;SDS011;10808;48.010;11.326;2023-01-29T07:48:39;13.38;;;8.82;;
21297;SDS011;10808;48.010;11.326;2023-01-29T07:51:05;17.33;;;11.30;;
21297;SDS011;10808;48.010;11.326;2023-01-29T07:53:31;22.95;;;14.68;;
21297;SDS011;10808;48.010;11.326;2023-01-29T07:55:58;15.10;;;9.45;;
21297;SDS011;10808;48.010;11.326;2023-01-29T07:58:24;14.43;;;9.10;;
21297;SDS011;10808;48.010;11.326;2023-01-29T08:00:50;11.48;;;7.70;;
21297;SDS011;10808;48.010;11.326;2023-01-29T08:03:16;11.75;;;7.50;;
21297;SDS011;10808;48.010;11.326;2023-01-29T08:05:44;14.18;;;8.98;;
21297;SDS011;10808;48.010;11.326;2023-01-29T08:08:10;11.43;;;7.60;;
21297;SDS011;10808;48.010;11.326;2023-01-29T08:10:37;10.90;;;7.18;;
21297;SDS011;10808;48.010;11.326;2023-01-29T08:13:04;16.73;;;10.88;;
21297;SDS011;10808;48.010;11.326;2023-01-29T08:15:32;23.45;;;13.52;;
21297;SDS011;10808;48.010;11.326;2023-01-29T08:18:02;14.98;;;9.60;;
21297;SDS011;10808;48.010;11.326;2023-01-29T08:20:28;14.25;;;9.30;;
21297;SDS011;10808;48.010;11.326;2023-01-29T08:22:57;11.20;;;7.50;;
21297;SDS011;10808;48.010;11.326;2023-01-29T08:25:27;10.45;;;6.88;;
21297;SDS011;10808;48.010;11.326;2023-01-29T08:27:54;11.20;;;7.07;;
21297;SDS011;10808;48.010;11.326;2023-01-29T08:30:22;10.75;;;7.15;;
21297;SDS011;10808;48.010;11.326;2023-01-29T08:32:49;10.68;;;7.18;;
21297;SDS011;10808;48.010;11.326;2023-01-29T08:35:15;11.37;;;6.90;;
21297;SDS011;10808;48.010;11.326;2023-01-29T08:37:41;11.02;;;7.05;;
21297;SDS011;10808;48.010;11.326;2023-01-29T08:40:07;10.70;;;6.78;;
21297;SDS011;10808;48.010;11.326;2023-01-29T08:42:35;10.57;;;6.88;;
21297;SDS011;10808;48.010;11.326;2023-01-29T08:45:01;10.63;;;7.40;;
21297;SDS011;10808;48.010;11.326;2023-01-29T08:47:27;11.40;;;7.68;;
21297;SDS011;10808;48.010;11.326;2023-01-29T08:49:53;10.90;;;7.13;;
21297;SDS011;10808;48.010;11.326;2023-01-29T08:52:19;11.00;;;7.38;;
21297;SDS011;10808;48.010;11.326;2023-01-29T08:54:45;10.35;;;7.13;;
21297;SDS011;10808;48.010;11.326;2023-01-29T08:57:11;11.02;;;7.20;;
21297;SDS011;10808;48.010;11.326;2023-01-29T08:59:37;11.73;;;7.15;;
21297;SDS011;10808;48.010;11.326;2023-01-29T09:02:04;10.90;;;7.13;;
21297;SDS011;10808;48.010;11.326;2023-01-29T09:04:30;10.77;;;7.40;;
21297;SDS011;10808;48.010;11.326;2023-01-29T09:06:56;11.25;;;7.53;;
21297;SDS011;10808;48.010;11.326;2023-01-29T09:09:22;10.88;;;7.35;;
21297;SDS011;10808;48.010;11.326;2023-01-29T09:11:48;11.77;;;7.00;;
21297;SDS011;10808;48.010;11.326;2023-01-29T09:14:14;10.57;;;6.90;;
21297;SDS011;10808;48.010;11.326;2023-01-29T09:16:40;11.00;;;7.20;;
21297;SDS011;10808;48.010;11.326;2023-01-29T09:19:06;10.63;;;7.15;;
21297;SDS011;10808;48.010;11.326;2023-01-29T09:21:32;9.88;;;6.93;;
21297;SDS011;10808;48.010;11.326;2023-01-29T09:23:58;10.50;;;6.78;;
21297;SDS011;10808;48.010;11.326;2023-01-29T09:26:24;10.48;;;6.40;;
21297;SDS011;10808;48.010;11.326;2023-01-29T09:28:50;9.77;;;6.40;;
21297;SDS011;10808;48.010;11.326;2023-01-29T09:31:16;11.03;;;6.63;;
21297;SDS011;10808;48.010;11.326;2023-01-29T09:33:42;10.68;;;6.88;;
21297;SDS011;10808;48.010;11.326;2023-01-29T09:36:08;10.70;;;6.57;;
21297;SDS011;10808;48.010;11.326;2023-01-29T09:38:34;9.70;;;6.47;;
21297;SDS011;10808;48.010;11.326;2023-01-29T09:41:15;10.45;;;7.00;;
21297;SDS011;10808;48.010;11.326;2023-01-29T09:44:10;10.82;;;7.13;;
21297;SDS011;10808;48.010;11.326;2023-01-29T09:46:45;9.70;;;6.60;;
21297;SDS011;10808;48.010;11.326;2023-01-29T09:49:19;10.18;;;6.72;;
21297;SDS011;10808;48.010;11.326;2023-01-29T09:52:04;10.50;;;6.30;;
21297;SDS011;10808;48.010;11.326;2023-01-29T09:57:24;9.88;;;6.45;;
21297;SDS011;10808;48.010;11.326;2023-01-29T09:59:58;9.75;;;6.47;;
21297;SDS011;10808;48.010;11.326;2023-01-29T10:05:07;9.10;;;6.30;;
21297;SDS011;10808;48.010;11.326;2023-01-29T10:07:51;9.65;;;6.43;;
21297;SDS011;10808;48.010;11.326;2023-01-29T10:10:34;10.63;;;7.00;;
21297;SDS011;10808;48.010;11.326;2023-01-29T10:13:16;10.88;;;6.75;;
21297;SDS011;10808;48.010;11.326;2023-01-29T10:16:17;10.25;;;6.60;;
21297;SDS011;10808;48.010;11.326;2023-01-29T10:18:49;9.97;;;6.53;;
21297;SDS011;10808;48.010;11.326;2023-01-29T10:24:00;11.35;;;6.85;;
21297;SDS011;10808;48.010;11.326;2023-01-29T10:26:47;10.40;;;7.40;;
21297;SDS011;10808;48.010;11.326;2023-01-29T10:29:17;11.02;;;7.22;;
21297;SDS011;10808;48.010;11.326;2023-01-29T10:31:45;9.38;;;6.60;;
21297;SDS011;10808;48.010;11.326;2023-01-29T10:34:17;9.45;;;6.53;;
21297;SDS011;10808;48.010;11.326;2023-01-29T10:37:03;9.57;;;6.70;;
21297;SDS011;10808;48.010;11.326;2023-01-29T10:39:40;9.90;;;6.78;;
21297;SDS011;10808;48.010;11.326;2023-01-29T10:42:14;9.85;;;7.20;;
21297;SDS011;10808;48.010;11.326;2023-01-29T10:45:03;10.15;;;7.25;;
21297;SDS011;10808;48.010;11.326;2023-01-29T10:51:00;10.07;;;7.15;;
21297;SDS011;10808;48.010;11.326;2023-01-29T10:53:42;10.25;;;7.05;;
21297;SDS011;10808;48.010;11.326;2023-01-29T10:59:23;10.90;;;7.55;;
21297;SDS011;10808;48.010;11.326;2023-01-29T11:02:00;9.57;;;7.20;;
21297;SDS011;10808;48.010;11.326;2023-01-29T11:04:29;10.90;;;7.33;;
21297;SDS011;10808;48.010;11.326;2023-01-29T11:06:57;9.95;;;6.80;;
21297;SDS011;10808;48.010;11.326;2023-01-29T11:09:29;10.95;;;7.07;;
21297;SDS011;10808;48.010;11.326;2023-01-29T11:12:13;12.73;;;8.00;;
21297;SDS011;10808;48.010;11.326;2023-01-29T11:17:16;11.35;;;7.63;;
21297;SDS011;10808;48.010;11.326;2023-01-29T11:19:44;12.52;;;8.43;;
21297;SDS011;10808;48.010;11.326;2023-01-29T11:24:41;10.43;;;7.57;;
21297;SDS011;10808;48.010;11.326;2023-01-29T11:29:48;11.32;;;8.15;;
21297;SDS011;10808;48.010;11.326;2023-01-29T11:35:00;16.40;;;11.80;;
21297;SDS011;10808;48.010;11.326;2023-01-29T11:37:39;14.50;;;8.85;;
21297;SDS011;10808;48.010;11.326;2023-01-29T11:42:47;14.20;;;10.07;;
21297;SDS011;10808;48.010;11.326;2023-01-29T11:45:32;12.33;;;8.07;;
21297;SDS011;10808;48.010;11.326;2023-01-29T11:47:59;10.13;;;7.43;;
21297;SDS011;10808;48.010;11.326;2023-01-29T11:50:26;11.38;;;7.57;;
21297;SDS011;10808;48.010;11.326;2023-01-29T11:52:54;11.23;;;7.90;;
21297;SDS011;10808;48.010;11.326;2023-01-29T11:55:30;11.13;;;7.80;;
21297;SDS011;10808;48.010;11.326;2023-01-29T12:00:32;12.38;;;8.43;;
21297;SDS011;10808;48.010;11.326;2023-01-29T12:03:03;10.52;;;7.55;;
21297;SDS011;10808;48.010;11.326;2023-01-29T12:05:42;11.57;;;8.07;;
21297;SDS011;10808;48.010;11.326;2023-01-29T12:08:33;11.15;;;8.32;;
21297;SDS011;10808;48.010;11.326;2023-01-29T12:11:09;11.15;;;8.05;;
21297;SDS011;10808;48.010;11.326;2023-01-29T12:13:38;10.75;;;7.88;;
21297;SDS011;10808;48.010;11.326;2023-01-29T12:16:53;10.75;;;7.47;;
21297;SDS011;10808;48.010;11.326;2023-01-29T12:19:00;9.70;;;7.03;;
21297;SDS011;10808;48.010;11.326;2023-01-29T12:21:39;9.70;;;6.63;;
21297;SDS011;10808;48.010;11.326;2023-01-29T12:27:14;9.35;;;6.88;;
21297;SDS011;10808;48.010;11.326;2023-01-29T12:30:02;9.23;;;6.30;;
21297;SDS011;10808;48.010;11.326;2023-01-29T12:35:18;10.07;;;7.00;;
21297;SDS011;10808;48.010;11.326;2023-01-29T12:37:56;9.52;;;6.88;;
21297;SDS011;10808;48.010;11.326;2023-01-29T12:40:28;11.70;;;7.68;;
21297;SDS011;10808;48.010;11.326;2023-01-29T12:43:00;10.13;;;7.10;;
21297;SDS011;10808;48.010;11.326;2023-01-29T12:45:31;12.07;;;7.57;;
21297;SDS011;10808;48.010;11.326;2023-01-29T12:48:05;13.15;;;8.77;;
21297;SDS011;10808;48.010;11.326;2023-01-29T12:50:35;18.02;;;9.32;;
21297;SDS011;10808;48.010;11.326;2023-01-29T12:58:48;15.00;;;10.00;;
21297;SDS011;10808;48.010;11.326;2023-01-29T13:06:34;10.13;;;7.32;;
21297;SDS011;10808;48.010;11.326;2023-01-29T13:09:14;10.30;;;7.10;;
21297;SDS011;10808;48.010;11.326;2023-01-29T13:14:18;12.50;;;8.00;;
21297;SDS011;10808;48.010;11.326;2023-01-29T13:16:46;10.48;;;7.60;;
21297;SDS011;10808;48.010;11.326;2023-01-29T13:21:43;11.53;;;7.80;;
21297;SDS011;10808;48.010;11.326;2023-01-29T13:24:12;10.57;;;7.63;;
21297;SDS011;10808;48.010;11.326;2023-01-29T13:26:43;10.13;;;7.05;;
21297;SDS011;10808;48.010;11.326;2023-01-29T13:29:27;11.02;;;7.20;;
21297;SDS011;10808;48.010;11.326;2023-01-29T13:31:58;10.15;;;7.35;;
21297;SDS011;10808;48.010;11.326;2023-01-29T13:34:29;10.70;;;7.75;;
21297;SDS011;10808;48.010;11.326;2023-01-29T13:36:59;12.02;;;8.70;;
21297;SDS011;10808;48.010;11.326;2023-01-29T13:39:35;12.80;;;9.20;;
21297;SDS011;10808;48.010;11.326;2023-01-29T13:42:19;13.35;;;8.77;;
21297;SDS011;10808;48.010;11.326;2023-01-29T13:44:46;11.90;;;8.18;;
21297;SDS011;10808;48.010;11.326;2023-01-29T13:47:24;12.85;;;9.40;;
21297;SDS011;10808;48.010;11.326;2023-01-29T13:49:54;12.30;;;9.10;;
21297;SDS011;10808;48.010;11.326;2023-01-29T14:02:46;12.45;;;8.35;;
21297;SDS011;10808;48.010;11.326;2023-01-29T14:05:40;10.90;;;7.40;;
21297;SDS011;10808;48.010;11.326;2023-01-29T14:13:38;11.13;;;8.00;;
21297;SDS011;10808;48.010;11.326;2023-01-29T14:18:35;9.93;;;7.45;;
21297;SDS011;10808;48.010;11.326;2023-01-29T14:21:06;10.00;;;7.28;;
21297;SDS011;10808;48.010;11.326;2023-01-29T14:23:57;10.63;;;7.45;;
21297;SDS011;10808;48.010;11.326;2023-01-29T14:26:42;10.93;;;7.45;;
21297;SDS011;10808;48.010;11.326;2023-01-29T14:36:43;10.55;;;7.40;;
21297;SDS011;10808;48.010;11.326;2023-01-29T14:39:45;10.55;;;7.50;;
21297;SDS011;10808;48.010;11.326;2023-01-29T14:42:15;11.30;;;7.50;;
21297;SDS011;10808;48.010;11.326;2023-01-29T14:47:20;12.48;;;9.05;;
21297;SDS011;10808;48.010;11.326;2023-01-29T14:49:53;12.52;;;8.65;;
21297;SDS011;10808;48.010;11.326;2023-01-29T14:52:29;12.63;;;9.17;;
21297;SDS011;10808;48.010;11.326;2023-01-29T14:55:04;11.73;;;8.00;;
21297;SDS011;10808;48.010;11.326;2023-01-29T14:57:33;12.68;;;8.77;;
21297;SDS011;10808;48.010;11.326;2023-01-29T15:00:03;12.82;;;9.00;;
21297;SDS011;10808;48.010;11.326;2023-01-29T15:02:37;14.03;;;9.50;;
21297;SDS011;10808;48.010;11.326;2023-01-29T15:05:28;12.33;;;8.77;;
21297;SDS011;10808;48.010;11.326;2023-01-29T15:07:57;12.43;;;8.70;;
21297;SDS011;10808;48.010;11.326;2023-01-29T15:11:02;13.17;;;8.80;;
21297;SDS011;10808;48.010;11.326;2023-01-29T15:14:05;11.75;;;8.07;;
21297;SDS011;10808;48.010;11.326;2023-01-29T15:16:47;13.75;;;9.18;;
21297;SDS011;10808;48.010;11.326;2023-01-29T15:19:22;12.00;;;8.27;;
21297;SDS011;10808;48.010;11.326;2023-01-29T15:22:09;11.35;;;8.23;;
21297;SDS011;10808;48.010;11.326;2023-01-29T15:24:38;12.15;;;8.90;;
21297;SDS011;10808;48.010;11.326;2023-01-29T15:27:06;12.52;;;8.40;;
21297;SDS011;10808;48.010;11.326;2023-01-29T15:29:37;12.30;;;8.73;;
21297;SDS011;10808;48.010;11.326;2023-01-29T15:32:03;13.70;;;9.10;;
21297;SDS011;10808;48.010;11.326;2023-01-29T15:34:30;12.90;;;9.00;;
21297;SDS011;10808;48.010;11.326;2023-01-29T15:36:56;12.07;;;8.73;;
21297;SDS011;10808;48.010;11.326;2023-01-29T15:39:23;14.50;;;9.77;;
21297;SDS011;10808;48.010;11.326;2023-01-29T15:41:50;12.35;;;9.27;;
21297;SDS011;10808;48.010;11.326;2023-01-29T15:44:34;14.43;;;9.60;;
21297;SDS011;10808;48.010;11.326;2023-01-29T15:47:01;11.43;;;8.05;;
21297;SDS011;10808;48.010;11.326;2023-01-29T15:49:31;13.40;;;9.10;;
21297;SDS011;10808;48.010;11.326;2023-01-29T15:52:02;13.95;;;9.38;;
21297;SDS011;10808;48.010;11.326;2023-01-29T15:54:32;15.73;;;10.80;;
21297;SDS011;10808;48.010;11.326;2023-01-29T15:56:59;14.25;;;10.35;;
21297;SDS011;10808;48.010;11.326;2023-01-29T15:59:31;12.77;;;9.20;;
21297;SDS011;10808;48.010;11.326;2023-01-29T16:02:26;12.50;;;8.93;;
21297;SDS011;10808;48.010;11.326;2023-01-29T16:04:56;12.97;;;9.03;;
21297;SDS011;10808;48.010;11.326;2023-01-29T16:07:23;14.37;;;10.20;;
21297;SDS011;10808;48.010;11.326;2023-01-29T16:09:49;16.13;;;11.18;;
21297;SDS011;10808;48.010;11.326;2023-01-29T16:12:16;15.23;;;11.18;;
21297;SDS011;10808;48.010;11.326;2023-01-29T16:14:43;25.90;;;16.30;;
21297;SDS011;10808;48.010;11.326;2023-01-29T16:20:06;20.33;;;13.40;;
21297;SDS011;10808;48.010;11.326;2023-01-29T16:22:44;17.67;;;11.93;;
21297;SDS011;10808;48.010;11.326;2023-01-29T16:25:11;18.27;;;12.90;;
21297;SDS011;10808;48.010;11.326;2023-01-29T16:27:39;17.15;;;11.65;;
21297;SDS011;10808;48.010;11.326;2023-01-29T16:30:08;16.55;;;11.30;;
21297;SDS011;10808;48.010;11.326;2023-01-29T16:32:38;15.40;;;11.07;;
21297;SDS011;10808;48.010;11.326;2023-01-29T16:35:05;16.92;;;11.77;;
21297;SDS011;10808;48.010;11.326;2023-01-29T16:37:32;19.77;;;12.77;;
21297;SDS011;10808;48.010;11.326;2023-01-29T16:40:09;24.63;;;14.00;;
21297;SDS011;10808;48.010;11.326;2023-01-29T16:45:42;18.88;;;13.02;;
21297;SDS011;10808;48.010;11.326;2023-01-29T16:48:32;18.33;;;12.25;;
21297;SDS011;10808;48.010;11.326;2023-01-29T16:51:10;17.57;;;12.73;;
21297;SDS011;10808;48.010;11.326;2023-01-29T16:53:38;18.63;;;12.43;;